sensor_id;sensor_type;location;lat;lon;timestamp;temperature;humidity
59311;DHT22;45078;51.654;21.250;2023-04-02T00:07:27;7.30;99.90
59311;DHT22;45078;51.654;21.250;2023-04-02T00:09:57;7.30;99.90
59311;DHT22;45078;51.654;21.250;2023-04-02T00:12:24;7.30;99.90
59311;DHT22;45078;51.654;21.250;2023-04-02T00:14:53;7.30;99.90
59311;DHT22;45078;51.654;21.250;2023-04-02T00:17:22;7.20;99.90
59311;DHT22;45078;51.654;21.250;2023-04-02T00:22:24;7.20;99.90
59311;DHT22;45078;51.654;21.250;2023-04-02T00:24:53;7.20;99.90
59311;DHT22;45078;51.654;21.250;2023-04-02T00:27:19;7.20;99.90
59311;DHT22;45078;51.654;21.250;2023-04-02T00:29:47;7.20;99.90
59311;DHT22;45078;51.654;21.250;2023-04-02T00:32:25;7.10;99.90
59311;DHT22;45078;51.654;21.250;2023-04-02T00:34:53;7.10;99.90
59311;DHT22;45078;51.654;21.250;2023-04-02T00:37:22;7.10;99.90
59311;DHT22;45078;51.654;21.250;2023-04-02T00:40:05;7.10;99.90
59311;DHT22;45078;51.654;21.250;2023-04-02T00:42:33;7.10;99.90
59311;DHT22;45078;51.654;21.250;2023-04-02T00:45:01;7.00;99.90
59311;DHT22;45078;51.654;21.250;2023-04-02T00:47:36;7.00;99.90
59311;DHT22;45078;51.654;21.250;2023-04-02T00:50:45;7.00;99.90
59311;DHT22;45078;51.654;21.250;2023-04-02T00:52:53;7.00;99.90
59311;DHT22;45078;51.654;21.250;2023-04-02T00:55:36;7.00;99.90
59311;DHT22;45078;51.654;21.250;2023-04-02T00:58:11;7.00;99.90
59311;DHT22;45078;51.654;21.250;2023-04-02T01:00:40;7.00;99.90
59311;DHT22;45078;51.654;21.250;2023-04-02T01:05:46;7.00;99.90
59311;DHT22;45078;51.654;21.250;2023-04-02T01:30:37;6.90;99.90
59311;DHT22;45078;51.654;21.250;2023-04-02T01:33:04;6.90;99.90
59311;DHT22;45078;51.654;21.250;2023-04-02T01:35:35;6.80;99.90
59311;DHT22;45078;51.654;21.250;2023-04-02T01:38:14;6.90;99.90
59311;DHT22;45078;51.654;21.250;2023-04-02T01:41:13;6.90;99.90
59311;DHT22;45078;51.654;21.250;2023-04-02T01:43:49;6.90;99.90
59311;DHT22;45078;51.654;21.250;2023-04-02T01:46:32;6.90;99.90
59311;DHT22;45078;51.654;21.250;2023-04-02T01:49:10;6.80;99.90
59311;DHT22;45078;51.654;21.250;2023-04-02T01:51:42;6.80;99.90
59311;DHT22;45078;51.654;21.250;2023-04-02T01:54:08;6.80;99.90
59311;DHT22;45078;51.654;21.250;2023-04-02T01:56:35;6.80;99.90
59311;DHT22;45078;51.654;21.250;2023-04-02T01:59:02;6.80;99.90
59311;DHT22;45078;51.654;21.250;2023-04-02T02:01:40;6.80;99.90
59311;DHT22;45078;51.654;21.250;2023-04-02T02:04:11;6.80;99.90
59311;DHT22;45078;51.654;21.250;2023-04-02T02:06:38;6.70;99.90
59311;DHT22;45078;51.654;21.250;2023-04-02T02:09:06;6.70;99.90
59311;DHT22;45078;51.654;21.250;2023-04-02T02:11:33;6.70;99.90
59311;DHT22;45078;51.654;21.250;2023-04-02T02:14:21;6.70;99.90
59311;DHT22;45078;51.654;21.250;2023-04-02T02:16:48;6.70;99.90
59311;DHT22;45078;51.654;21.250;2023-04-02T02:24:35;6.70;99.90
59311;DHT22;45078;51.654;21.250;2023-04-02T02:32:44;6.70;99.90
59311;DHT22;45078;51.654;21.250;2023-04-02T02:35:51;6.60;99.90
59311;DHT22;45078;51.654;21.250;2023-04-02T02:41:15;6.60;99.90
59311;DHT22;45078;51.654;21.250;2023-04-02T02:43:49;6.60;99.90
59311;DHT22;45078;51.654;21.250;2023-04-02T02:46:17;6.60;99.90
59311;DHT22;45078;51.654;21.250;2023-04-02T02:48:45;6.60;99.90
59311;DHT22;45078;51.654;21.250;2023-04-02T02:51:19;6.60;99.90
59311;DHT22;45078;51.654;21.250;2023-04-02T02:53:50;6.50;99.90
59311;DHT22;45078;51.654;21.250;2023-04-02T02:56:19;6.50;99.90
59311;DHT22;45078;51.654;21.250;2023-04-02T02:58:50;6.60;99.90
59311;DHT22;45078;51.654;21.250;2023-04-02T03:01:17;6.50;99.90
59311;DHT22;45078;51.654;21.250;2023-04-02T03:03:43;6.50;99.90
59311;DHT22;45078;51.654;21.250;2023-04-02T03:06:15;6.50;99.90
59311;DHT22;45078;51.654;21.250;2023-04-02T03:08:50;6.50;99.90
59311;DHT22;45078;51.654;21.250;2023-04-02T03:13:47;6.50;99.90
59311;DHT22;45078;51.654;21.250;2023-04-02T03:16:39;6.50;99.90
59311;DHT22;45078;51.654;21.250;2023-04-02T03:21:53;6.50;99.90
59311;DHT22;45078;51.654;21.250;2023-04-02T03:24:37;6.50;99.90
59311;DHT22;45078;51.654;21.250;2023-04-02T03:27:12;6.40;99.90
59311;DHT22;45078;51.654;21.250;2023-04-02T03:29:42;6.40;99.90
59311;DHT22;45078;51.654;21.250;2023-04-02T03:32:22;6.40;99.90
59311;DHT22;45078;51.654;21.250;2023-04-02T03:35:07;6.40;99.90
59311;DHT22;45078;51.654;21.250;2023-04-02T03:37:43;6.40;99.90
59311;DHT22;45078;51.654;21.250;2023-04-02T03:40:21;6.40;99.90
59311;DHT22;45078;51.654;21.250;2023-04-02T03:43:09;6.40;99.90
59311;DHT22;45078;51.654;21.250;2023-04-02T03:45:42;6.30;99.90
59311;DHT22;45078;51.654;21.250;2023-04-02T03:48:22;6.30;99.90
59311;DHT22;45078;51.654;21.250;2023-04-02T03:53:23;6.30;99.90
59311;DHT22;45078;51.654;21.250;2023-04-02T03:55:50;6.30;99.90
59311;DHT22;45078;51.654;21.250;2023-04-02T03:58:44;6.30;99.90
59311;DHT22;45078;51.654;21.250;2023-04-02T04:01:19;6.30;99.90
59311;DHT22;45078;51.654;21.250;2023-04-02T04:04:08;6.30;99.90
59311;DHT22;45078;51.654;21.250;2023-04-02T04:06:41;6.30;99.90
59311;DHT22;45078;51.654;21.250;2023-04-02T04:11:44;6.30;99.90
59311;DHT22;45078;51.654;21.250;2023-04-02T04:14:31;6.30;99.90
59311;DHT22;45078;51.654;21.250;2023-04-02T04:17:19;6.30;99.90
59311;DHT22;45078;51.654;21.250;2023-04-02T04:22:32;6.30;99.90
59311;DHT22;45078;51.654;21.250;2023-04-02T04:25:04;6.30;99.90
59311;DHT22;45078;51.654;21.250;2023-04-02T04:27:45;6.30;99.90
59311;DHT22;45078;51.654;21.250;2023-04-02T04:30:27;6.30;99.90
59311;DHT22;45078;51.654;21.250;2023-04-02T04:33:15;6.30;99.90
59311;DHT22;45078;51.654;21.250;2023-04-02T04:35:54;6.30;99.90
59311;DHT22;45078;51.654;21.250;2023-04-02T04:38:31;6.30;99.90
59311;DHT22;45078;51.654;21.250;2023-04-02T04:41:10;6.30;99.90
59311;DHT22;45078;51.654;21.250;2023-04-02T04:49:08;6.30;99.90
59311;DHT22;45078;51.654;21.250;2023-04-02T04:51:46;6.30;99.90
59311;DHT22;45078;51.654;21.250;2023-04-02T04:54:13;6.30;99.90
59311;DHT22;45078;51.654;21.250;2023-04-02T04:56:40;6.30;99.90
59311;DHT22;45078;51.654;21.250;2023-04-02T04:59:42;6.30;99.90
59311;DHT22;45078;51.654;21.250;2023-04-02T05:02:18;6.20;99.90
59311;DHT22;45078;51.654;21.250;2023-04-02T05:04:49;6.20;99.90
59311;DHT22;45078;51.654;21.250;2023-04-02T05:07:29;6.20;99.90
59311;DHT22;45078;51.654;21.250;2023-04-02T05:13:15;6.20;99.90
59311;DHT22;45078;51.654;21.250;2023-04-02T05:16:25;6.10;99.90
59311;DHT22;45078;51.654;21.250;2023-04-02T05:19:10;6.20;99.90
59311;DHT22;45078;51.654;21.250;2023-04-02T05:21:41;6.20;99.90
59311;DHT22;45078;51.654;21.250;2023-04-02T05:29:45;6.10;99.90
59311;DHT22;45078;51.654;21.250;2023-04-02T05:32:22;6.10;99.90
59311;DHT22;45078;51.654;21.250;2023-04-02T05:34:53;6.20;99.90
59311;DHT22;45078;51.654;21.250;2023-04-02T05:37:22;6.10;99.90
59311;DHT22;45078;51.654;21.250;2023-04-02T05:39:56;6.20;99.90
59311;DHT22;45078;51.654;21.250;2023-04-02T05:42:31;6.20;99.90
59311;DHT22;45078;51.654;21.250;2023-04-02T05:47:31;6.20;99.90
59311;DHT22;45078;51.654;21.250;2023-04-02T05:50:11;6.20;99.90
59311;DHT22;45078;51.654;21.250;2023-04-02T05:52:47;6.30;99.90
59311;DHT22;45078;51.654;21.250;2023-04-02T05:55:28;6.20;99.90
59311;DHT22;45078;51.654;21.250;2023-04-02T05:58:00;6.20;99.90
59311;DHT22;45078;51.654;21.250;2023-04-02T06:03:36;6.10;99.90
59311;DHT22;45078;51.654;21.250;2023-04-02T06:06:15;6.10;99.90
59311;DHT22;45078;51.654;21.250;2023-04-02T06:08:54;6.10;99.90
59311;DHT22;45078;51.654;21.250;2023-04-02T06:11:38;6.10;99.90
59311;DHT22;45078;51.654;21.250;2023-04-02T06:14:13;6.10;99.90
59311;DHT22;45078;51.654;21.250;2023-04-02T06:16:40;6.10;99.90
59311;DHT22;45078;51.654;21.250;2023-04-02T06:19:26;6.20;99.90
59311;DHT22;45078;51.654;21.250;2023-04-02T06:21:58;6.20;99.90
59311;DHT22;45078;51.654;21.250;2023-04-02T06:24:25;6.10;99.90
59311;DHT22;45078;51.654;21.250;2023-04-02T06:26:58;6.10;99.90
59311;DHT22;45078;51.654;21.250;2023-04-02T06:29:33;6.10;99.90
59311;DHT22;45078;51.654;21.250;2023-04-02T06:32:06;6.10;99.90
59311;DHT22;45078;51.654;21.250;2023-04-02T06:34:35;6.10;99.90
59311;DHT22;45078;51.654;21.250;2023-04-02T06:39:46;6.10;99.90
59311;DHT22;45078;51.654;21.250;2023-04-02T06:42:20;6.10;99.90
59311;DHT22;45078;51.654;21.250;2023-04-02T06:44:47;6.10;99.90
59311;DHT22;45078;51.654;21.250;2023-04-02T06:50:11;6.10;99.90
59311;DHT22;45078;51.654;21.250;2023-04-02T06:52:53;6.20;99.90
59311;DHT22;45078;51.654;21.250;2023-04-02T06:57:45;6.10;99.90
59311;DHT22;45078;51.654;21.250;2023-04-02T07:00:35;6.10;99.90
59311;DHT22;45078;51.654;21.250;2023-04-02T07:03:05;6.10;99.90
59311;DHT22;45078;51.654;21.250;2023-04-02T07:05:31;6.10;99.90
59311;DHT22;45078;51.654;21.250;2023-04-02T07:07:57;6.00;99.90
59311;DHT22;45078;51.654;21.250;2023-04-02T07:10:23;6.00;99.90
59311;DHT22;45078;51.654;21.250;2023-04-02T07:12:49;6.00;99.90
59311;DHT22;45078;51.654;21.250;2023-04-02T07:15:16;5.90;99.90
59311;DHT22;45078;51.654;21.250;2023-04-02T07:17:43;5.90;99.90
59311;DHT22;45078;51.654;21.250;2023-04-02T07:20:29;5.90;99.90
59311;DHT22;45078;51.654;21.250;2023-04-02T07:22:56;5.80;99.90
59311;DHT22;45078;51.654;21.250;2023-04-02T07:25:23;5.80;99.90
59311;DHT22;45078;51.654;21.250;2023-04-02T07:27:49;5.80;99.90
59311;DHT22;45078;51.654;21.250;2023-04-02T07:30:16;5.80;99.90
59311;DHT22;45078;51.654;21.250;2023-04-02T07:32:41;5.80;99.90
59311;DHT22;45078;51.654;21.250;2023-04-02T07:35:08;5.80;99.90
59311;DHT22;45078;51.654;21.250;2023-04-02T07:37:35;5.90;99.90
59311;DHT22;45078;51.654;21.250;2023-04-02T07:40:01;6.00;99.90
59311;DHT22;45078;51.654;21.250;2023-04-02T07:42:27;6.10;99.90
59311;DHT22;45078;51.654;21.250;2023-04-02T07:44:52;6.30;99.90
59311;DHT22;45078;51.654;21.250;2023-04-02T07:47:18;6.40;99.90
59311;DHT22;45078;51.654;21.250;2023-04-02T07:49:44;6.50;99.90
59311;DHT22;45078;51.654;21.250;2023-04-02T07:52:11;6.60;99.90
59311;DHT22;45078;51.654;21.250;2023-04-02T07:54:36;6.40;99.90
59311;DHT22;45078;51.654;21.250;2023-04-02T07:57:02;6.40;99.90
59311;DHT22;45078;51.654;21.250;2023-04-02T07:59:28;6.30;99.90
59311;DHT22;45078;51.654;21.250;2023-04-02T08:01:54;6.30;99.90
59311;DHT22;45078;51.654;21.250;2023-04-02T08:04:21;6.30;99.90
59311;DHT22;45078;51.654;21.250;2023-04-02T08:06:48;6.20;99.90
59311;DHT22;45078;51.654;21.250;2023-04-02T08:09:15;6.00;99.90
59311;DHT22;45078;51.654;21.250;2023-04-02T08:11:41;6.00;99.90
59311;DHT22;45078;51.654;21.250;2023-04-02T08:14:08;5.90;99.90
59311;DHT22;45078;51.654;21.250;2023-04-02T08:16:49;5.90;99.90
59311;DHT22;45078;51.654;21.250;2023-04-02T08:19:15;5.80;99.90
59311;DHT22;45078;51.654;21.250;2023-04-02T08:21:41;5.80;99.90
59311;DHT22;45078;51.654;21.250;2023-04-02T08:24:07;5.80;99.90
59311;DHT22;45078;51.654;21.250;2023-04-02T08:26:33;5.80;99.90
59311;DHT22;45078;51.654;21.250;2023-04-02T08:28:59;5.80;99.90
59311;DHT22;45078;51.654;21.250;2023-04-02T08:31:25;5.80;99.90
59311;DHT22;45078;51.654;21.250;2023-04-02T08:33:50;5.90;99.90
59311;DHT22;45078;51.654;21.250;2023-04-02T08:36:19;5.90;99.90
59311;DHT22;45078;51.654;21.250;2023-04-02T08:38:49;6.00;99.90
59311;DHT22;45078;51.654;21.250;2023-04-02T08:41:26;6.10;99.90
59311;DHT22;45078;51.654;21.250;2023-04-02T08:46:50;6.00;99.90
59311;DHT22;45078;51.654;21.250;2023-04-02T08:49:21;6.00;99.90
59311;DHT22;45078;51.654;21.250;2023-04-02T08:51:49;6.00;99.90
59311;DHT22;45078;51.654;21.250;2023-04-02T08:54:34;6.00;99.90
59311;DHT22;45078;51.654;21.250;2023-04-02T08:57:08;6.00;99.90
59311;DHT22;45078;51.654;21.250;2023-04-02T08:59:41;5.90;99.90
59311;DHT22;45078;51.654;21.250;2023-04-02T09:02:31;5.70;99.90
59311;DHT22;45078;51.654;21.250;2023-04-02T09:05:03;5.70;99.90
59311;DHT22;45078;51.654;21.250;2023-04-02T09:07:30;5.70;99.90
59311;DHT22;45078;51.654;21.250;2023-04-02T09:09:58;5.60;99.90
59311;DHT22;45078;51.654;21.250;2023-04-02T09:12:29;5.70;99.90
59311;DHT22;45078;51.654;21.250;2023-04-02T09:17:24;5.60;99.90
59311;DHT22;45078;51.654;21.250;2023-04-02T09:22:46;5.50;99.90
59311;DHT22;45078;51.654;21.250;2023-04-02T09:25:24;5.40;99.90
59311;DHT22;45078;51.654;21.250;2023-04-02T09:27:53;5.50;99.90
59311;DHT22;45078;51.654;21.250;2023-04-02T09:33:17;5.50;99.90
59311;DHT22;45078;51.654;21.250;2023-04-02T09:43:14;5.70;99.90
59311;DHT22;45078;51.654;21.250;2023-04-02T09:45:42;5.70;99.90
59311;DHT22;45078;51.654;21.250;2023-04-02T09:48:27;5.80;99.90
59311;DHT22;45078;51.654;21.250;2023-04-02T09:51:14;5.80;99.90
59311;DHT22;45078;51.654;21.250;2023-04-02T09:53:49;5.90;99.90
59311;DHT22;45078;51.654;21.250;2023-04-02T09:56:20;5.90;99.90
59311;DHT22;45078;51.654;21.250;2023-04-02T10:01:40;5.90;99.90
59311;DHT22;45078;51.654;21.250;2023-04-02T10:10:01;5.90;99.90
59311;DHT22;45078;51.654;21.250;2023-04-02T10:12:29;5.90;99.90
59311;DHT22;45078;51.654;21.250;2023-04-02T10:14:58;5.90;99.90
59311;DHT22;45078;51.654;21.250;2023-04-02T10:17:31;5.90;99.90
59311;DHT22;45078;51.654;21.250;2023-04-02T10:20:20;5.90;99.90
59311;DHT22;45078;51.654;21.250;2023-04-02T10:22:47;5.80;99.90
59311;DHT22;45078;51.654;21.250;2023-04-02T10:25:17;5.80;99.90
59311;DHT22;45078;51.654;21.250;2023-04-02T10:30:54;5.70;99.90
59311;DHT22;45078;51.654;21.250;2023-04-02T10:33:41;5.70;99.90
59311;DHT22;45078;51.654;21.250;2023-04-02T10:39:43;5.80;99.90
59311;DHT22;45078;51.654;21.250;2023-04-02T10:42:22;5.90;99.90
59311;DHT22;45078;51.654;21.250;2023-04-02T10:45:45;6.00;99.90
59311;DHT22;45078;51.654;21.250;2023-04-02T10:48:03;6.10;99.90
59311;DHT22;45078;51.654;21.250;2023-04-02T10:53:22;5.90;99.90
59311;DHT22;45078;51.654;21.250;2023-04-02T10:56:00;5.80;99.90
59311;DHT22;45078;51.654;21.250;2023-04-02T10:58:32;5.80;99.90
59311;DHT22;45078;51.654;21.250;2023-04-02T11:01:06;5.70;99.90
59311;DHT22;45078;51.654;21.250;2023-04-02T11:03:38;5.80;99.90
59311;DHT22;45078;51.654;21.250;2023-04-02T11:06:28;5.80;99.90
59311;DHT22;45078;51.654;21.250;2023-04-02T11:08:58;5.60;99.90
59311;DHT22;45078;51.654;21.250;2023-04-02T11:11:39;5.60;99.90
59311;DHT22;45078;51.654;21.250;2023-04-02T11:14:31;5.50;99.90
59311;DHT22;45078;51.654;21.250;2023-04-02T11:16:59;5.60;99.90
59311;DHT22;45078;51.654;21.250;2023-04-02T11:19:30;5.50;99.90
59311;DHT22;45078;51.654;21.250;2023-04-02T11:22:01;5.60;99.90
59311;DHT22;45078;51.654;21.250;2023-04-02T11:27:21;5.80;99.90
59311;DHT22;45078;51.654;21.250;2023-04-02T11:30:05;5.80;99.90
59311;DHT22;45078;51.654;21.250;2023-04-02T11:35:22;5.70;99.90
59311;DHT22;45078;51.654;21.250;2023-04-02T11:37:49;5.70;99.90
59311;DHT22;45078;51.654;21.250;2023-04-02T11:42:47;5.60;99.90
59311;DHT22;45078;51.654;21.250;2023-04-02T11:50:43;5.50;99.90
59311;DHT22;45078;51.654;21.250;2023-04-02T12:07:19;5.40;99.90
59311;DHT22;45078;51.654;21.250;2023-04-02T12:09:57;5.40;99.90
59311;DHT22;45078;51.654;21.250;2023-04-02T12:12:40;5.30;99.90
59311;DHT22;45078;51.654;21.250;2023-04-02T12:18:08;5.40;99.90
59311;DHT22;45078;51.654;21.250;2023-04-02T12:20:37;5.40;99.90
59311;DHT22;45078;51.654;21.250;2023-04-02T12:23:03;5.30;99.90
59311;DHT22;45078;51.654;21.250;2023-04-02T12:25:37;5.30;99.90
59311;DHT22;45078;51.654;21.250;2023-04-02T12:30:42;5.30;99.90
59311;DHT22;45078;51.654;21.250;2023-04-02T12:35:45;5.30;99.90
59311;DHT22;45078;51.654;21.250;2023-04-02T12:41:29;5.40;99.90
59311;DHT22;45078;51.654;21.250;2023-04-02T12:44:05;5.30;99.90
59311;DHT22;45078;51.654;21.250;2023-04-02T12:46:33;5.20;99.90
59311;DHT22;45078;51.654;21.250;2023-04-02T12:51:52;5.20;99.90
59311;DHT22;45078;51.654;21.250;2023-04-02T12:54:19;5.20;99.90
59311;DHT22;45078;51.654;21.250;2023-04-02T12:56:47;5.20;99.90
59311;DHT22;45078;51.654;21.250;2023-04-02T12:59:39;5.20;99.90
59311;DHT22;45078;51.654;21.250;2023-04-02T13:02:23;5.20;99.90
59311;DHT22;45078;51.654;21.250;2023-04-02T13:04:51;5.30;99.90
59311;DHT22;45078;51.654;21.250;2023-04-02T13:07:19;5.30;99.90
59311;DHT22;45078;51.654;21.250;2023-04-02T13:09:51;5.30;99.90
59311;DHT22;45078;51.654;21.250;2023-04-02T13:12:37;5.30;99.90
59311;DHT22;45078;51.654;21.250;2023-04-02T13:15:41;5.30;99.90
59311;DHT22;45078;51.654;21.250;2023-04-02T13:18:21;5.30;99.90
59311;DHT22;45078;51.654;21.250;2023-04-02T13:21:00;5.20;99.90
59311;DHT22;45078;51.654;21.250;2023-04-02T13:23:35;5.20;99.90
59311;DHT22;45078;51.654;21.250;2023-04-02T13:28:37;5.20;99.90
59311;DHT22;45078;51.654;21.250;2023-04-02T13:31:02;5.10;99.90
59311;DHT22;45078;51.654;21.250;2023-04-02T13:33:28;5.00;99.90
59311;DHT22;45078;51.654;21.250;2023-04-02T13:35:54;4.90;99.90
59311;DHT22;45078;51.654;21.250;2023-04-02T13:38:20;4.90;99.90
59311;DHT22;45078;51.654;21.250;2023-04-02T13:40:46;4.80;99.90
59311;DHT22;45078;51.654;21.250;2023-04-02T13:43:18;4.80;99.90
59311;DHT22;45078;51.654;21.250;2023-04-02T13:45:50;4.70;99.90
59311;DHT22;45078;51.654;21.250;2023-04-02T13:48:17;4.80;99.90
59311;DHT22;45078;51.654;21.250;2023-04-02T13:50:43;4.90;99.90
59311;DHT22;45078;51.654;21.250;2023-04-02T13:53:18;4.80;99.90
59311;DHT22;45078;51.654;21.250;2023-04-02T13:55:45;4.90;99.90
59311;DHT22;45078;51.654;21.250;2023-04-02T13:58:11;4.90;99.90
59311;DHT22;45078;51.654;21.250;2023-04-02T14:00:37;5.00;99.90
59311;DHT22;45078;51.654;21.250;2023-04-02T14:03:15;5.00;99.90
59311;DHT22;45078;51.654;21.250;2023-04-02T14:13:43;4.90;99.90
59311;DHT22;45078;51.654;21.250;2023-04-02T14:24:51;4.90;99.90
59311;DHT22;45078;51.654;21.250;2023-04-02T14:35:44;4.90;99.90
59311;DHT22;45078;51.654;21.250;2023-04-02T14:38:32;4.90;99.90
59311;DHT22;45078;51.654;21.250;2023-04-02T14:41:08;4.80;99.90
59311;DHT22;45078;51.654;21.250;2023-04-02T14:46:14;4.80;99.90
59311;DHT22;45078;51.654;21.250;2023-04-02T14:51:47;4.70;99.90
59311;DHT22;45078;51.654;21.250;2023-04-02T14:54:36;4.70;99.90
59311;DHT22;45078;51.654;21.250;2023-04-02T14:57:09;4.80;99.90
59311;DHT22;45078;51.654;21.250;2023-04-02T15:05:18;4.80;99.90
59311;DHT22;45078;51.654;21.250;2023-04-02T15:07:58;4.80;99.90
59311;DHT22;45078;51.654;21.250;2023-04-02T15:10:38;4.80;99.90
59311;DHT22;45078;51.654;21.250;2023-04-02T15:13:11;4.80;99.90
59311;DHT22;45078;51.654;21.250;2023-04-02T15:15:43;4.70;99.90
59311;DHT22;45078;51.654;21.250;2023-04-02T15:18:15;4.60;99.90
59311;DHT22;45078;51.654;21.250;2023-04-02T15:21:03;4.60;99.90
59311;DHT22;45078;51.654;21.250;2023-04-02T15:24:03;4.60;99.90
59311;DHT22;45078;51.654;21.250;2023-04-02T15:38:10;4.40;99.90
59311;DHT22;45078;51.654;21.250;2023-04-02T15:41:02;4.50;99.90
59311;DHT22;45078;51.654;21.250;2023-04-02T15:43:43;4.40;99.90
59311;DHT22;45078;51.654;21.250;2023-04-02T15:54:52;4.40;99.90
59311;DHT22;45078;51.654;21.250;2023-04-02T16:05:43;4.40;99.90
59311;DHT22;45078;51.654;21.250;2023-04-02T16:11:02;4.30;99.90
59311;DHT22;45078;51.654;21.250;2023-04-02T16:13:33;4.30;99.90
59311;DHT22;45078;51.654;21.250;2023-04-02T16:21:03;4.30;99.90
59311;DHT22;45078;51.654;21.250;2023-04-02T16:23:35;4.30;99.90
59311;DHT22;45078;51.654;21.250;2023-04-02T16:39:45;4.10;99.90
59311;DHT22;45078;51.654;21.250;2023-04-02T16:42:30;4.10;99.90
59311;DHT22;45078;51.654;21.250;2023-04-02T16:45:28;4.10;99.90
59311;DHT22;45078;51.654;21.250;2023-04-02T16:56:26;3.90;99.90
59311;DHT22;45078;51.654;21.250;2023-04-02T17:06:41;3.70;99.90
59311;DHT22;45078;51.654;21.250;2023-04-02T17:11:44;3.70;99.90
59311;DHT22;45078;51.654;21.250;2023-04-02T17:14:29;3.70;99.90
59311;DHT22;45078;51.654;21.250;2023-04-02T17:17:02;3.70;99.90
59311;DHT22;45078;51.654;21.250;2023-04-02T17:19:29;3.70;99.90
59311;DHT22;45078;51.654;21.250;2023-04-02T17:22:01;3.60;99.90
59311;DHT22;45078;51.654;21.250;2023-04-02T17:24:34;3.60;99.90
59311;DHT22;45078;51.654;21.250;2023-04-02T17:27:24;3.60;99.90
59311;DHT22;45078;51.654;21.250;2023-04-02T17:29:54;3.60;99.90
59311;DHT22;45078;51.654;21.250;2023-04-02T17:32:27;3.60;99.90
59311;DHT22;45078;51.654;21.250;2023-04-02T17:38:14;3.50;99.90
59311;DHT22;45078;51.654;21.250;2023-04-02T17:40:42;3.40;99.90
59311;DHT22;45078;51.654;21.250;2023-04-02T17:49:17;3.30;99.90
59311;DHT22;45078;51.654;21.250;2023-04-02T17:52:04;3.30;99.90
59311;DHT22;45078;51.654;21.250;2023-04-02T18:05:44;3.30;99.90
59311;DHT22;45078;51.654;21.250;2023-04-02T18:11:01;3.20;99.90
59311;DHT22;45078;51.654;21.250;2023-04-02T18:13:34;3.20;99.90
59311;DHT22;45078;51.654;21.250;2023-04-02T18:18:48;3.20;99.90
59311;DHT22;45078;51.654;21.250;2023-04-02T18:24:27;3.10;99.90
59311;DHT22;45078;51.654;21.250;2023-04-02T18:30:13;3.10;99.90
59311;DHT22;45078;51.654;21.250;2023-04-02T18:40:55;3.00;99.90
59311;DHT22;45078;51.654;21.250;2023-04-02T18:48:56;3.00;99.90
59311;DHT22;45078;51.654;21.250;2023-04-02T18:51:25;3.00;99.90
59311;DHT22;45078;51.654;21.250;2023-04-02T18:56:44;3.00;99.90
59311;DHT22;45078;51.654;21.250;2023-04-02T19:02:02;3.00;99.90
59311;DHT22;45078;51.654;21.250;2023-04-02T19:04:33;3.00;99.90
59311;DHT22;45078;51.654;21.250;2023-04-02T19:07:11;3.00;99.90
59311;DHT22;45078;51.654;21.250;2023-04-02T19:09:42;3.00;99.90
59311;DHT22;45078;51.654;21.250;2023-04-02T19:12:20;3.10;99.90
59311;DHT22;45078;51.654;21.250;2023-04-02T19:14:47;3.10;99.90
59311;DHT22;45078;51.654;21.250;2023-04-02T19:17:29;3.00;99.90
59311;DHT22;45078;51.654;21.250;2023-04-02T19:33:11;2.90;99.90
59311;DHT22;45078;51.654;21.250;2023-04-02T19:35:50;3.00;99.90
59311;DHT22;45078;51.654;21.250;2023-04-02T19:44:00;2.90;99.90
59311;DHT22;45078;51.654;21.250;2023-04-02T19:46:28;3.00;99.90
59311;DHT22;45078;51.654;21.250;2023-04-02T19:49:13;2.90;99.90
59311;DHT22;45078;51.654;21.250;2023-04-02T19:51:42;3.00;99.90
59311;DHT22;45078;51.654;21.250;2023-04-02T19:54:08;3.00;99.90
59311;DHT22;45078;51.654;21.250;2023-04-02T19:56:34;3.00;99.90
59311;DHT22;45078;51.654;21.250;2023-04-02T19:59:00;2.90;99.90
59311;DHT22;45078;51.654;21.250;2023-04-02T20:01:26;3.00;99.90
59311;DHT22;45078;51.654;21.250;2023-04-02T20:03:52;3.00;99.90
59311;DHT22;45078;51.654;21.250;2023-04-02T20:06:19;3.00;99.90
59311;DHT22;45078;51.654;21.250;2023-04-02T20:08:45;3.00;99.90
59311;DHT22;45078;51.654;21.250;2023-04-02T20:11:11;3.00;99.90
59311;DHT22;45078;51.654;21.250;2023-04-02T20:13:37;3.00;99.90
59311;DHT22;45078;51.654;21.250;2023-04-02T20:16:04;2.90;99.90
59311;DHT22;45078;51.654;21.250;2023-04-02T20:18:31;2.90;99.90
59311;DHT22;45078;51.654;21.250;2023-04-02T20:20:57;3.00;99.90
59311;DHT22;45078;51.654;21.250;2023-04-02T20:23:23;2.90;99.90
59311;DHT22;45078;51.654;21.250;2023-04-02T20:25:51;2.90;99.90
59311;DHT22;45078;51.654;21.250;2023-04-02T20:28:21;2.90;99.90
59311;DHT22;45078;51.654;21.250;2023-04-02T20:30:47;2.90;99.90
59311;DHT22;45078;51.654;21.250;2023-04-02T20:33:22;2.90;99.90
59311;DHT22;45078;51.654;21.250;2023-04-02T20:35:49;2.90;99.90
59311;DHT22;45078;51.654;21.250;2023-04-02T20:38:15;2.90;99.90
59311;DHT22;45078;51.654;21.250;2023-04-02T20:40:42;2.90;99.90
59311;DHT22;45078;51.654;21.250;2023-04-02T20:43:11;2.90;99.90
59311;DHT22;45078;51.654;21.250;2023-04-02T20:45:37;2.80;99.90
59311;DHT22;45078;51.654;21.250;2023-04-02T20:48:03;2.80;99.90
59311;DHT22;45078;51.654;21.250;2023-04-02T20:50:29;2.80;99.90
59311;DHT22;45078;51.654;21.250;2023-04-02T20:52:57;2.80;99.90
59311;DHT22;45078;51.654;21.250;2023-04-02T20:55:23;2.80;99.90
59311;DHT22;45078;51.654;21.250;2023-04-02T20:57:49;2.80;99.90
59311;DHT22;45078;51.654;21.250;2023-04-02T21:00:15;2.70;99.90
59311;DHT22;45078;51.654;21.250;2023-04-02T21:02:42;2.80;99.90
59311;DHT22;45078;51.654;21.250;2023-04-02T21:05:08;2.80;99.90
59311;DHT22;45078;51.654;21.250;2023-04-02T21:07:33;2.80;99.90
59311;DHT22;45078;51.654;21.250;2023-04-02T21:09:59;2.80;99.90
59311;DHT22;45078;51.654;21.250;2023-04-02T21:12:26;2.70;99.90
59311;DHT22;45078;51.654;21.250;2023-04-02T21:14:52;2.70;99.90
59311;DHT22;45078;51.654;21.250;2023-04-02T21:17:22;2.70;99.90
59311;DHT22;45078;51.654;21.250;2023-04-02T21:19:48;2.70;99.90
59311;DHT22;45078;51.654;21.250;2023-04-02T21:22:14;2.70;99.90
59311;DHT22;45078;51.654;21.250;2023-04-02T21:24:39;2.60;99.90
59311;DHT22;45078;51.654;21.250;2023-04-02T21:27:05;2.70;99.90
59311;DHT22;45078;51.654;21.250;2023-04-02T21:29:31;2.60;99.90
59311;DHT22;45078;51.654;21.250;2023-04-02T21:31:57;2.60;99.90
59311;DHT22;45078;51.654;21.250;2023-04-02T21:34:22;2.60;99.90
59311;DHT22;45078;51.654;21.250;2023-04-02T21:36:48;2.60;99.90
59311;DHT22;45078;51.654;21.250;2023-04-02T21:39:20;2.60;99.90
59311;DHT22;45078;51.654;21.250;2023-04-02T21:41:48;2.50;99.90
59311;DHT22;45078;51.654;21.250;2023-04-02T21:44:20;2.50;99.90
59311;DHT22;45078;51.654;21.250;2023-04-02T21:46:47;2.50;99.90
59311;DHT22;45078;51.654;21.250;2023-04-02T21:49:15;2.50;99.90